sensor_id;sensor_type;location;lat;lon;timestamp;pressure;altitude;pressure_sealevel;temperature;humidity
64352;BME280;50680;52.626;-8.668;2022-07-18T00:00:51;101760.88;;;15.83;100.00
64352;BME280;50680;52.626;-8.668;2022-07-18T00:03:18;101749.00;;;15.75;100.00
64352;BME280;50680;52.626;-8.668;2022-07-18T00:05:45;101765.03;;;15.72;100.00
64352;BME280;50680;52.626;-8.668;2022-07-18T00:08:12;101758.34;;;15.67;100.00
64352;BME280;50680;52.626;-8.668;2022-07-18T00:10:39;101757.59;;;15.65;100.00
64352;BME280;50680;52.626;-8.668;2022-07-18T00:13:06;101757.69;;;15.63;100.00
64352;BME280;50680;52.626;-8.668;2022-07-18T00:15:33;101761.34;;;15.60;100.00
64352;BME280;50680;52.626;-8.668;2022-07-18T00:18:00;101759.88;;;15.56;100.00
64352;BME280;50680;52.626;-8.668;2022-07-18T00:20:27;101760.94;;;15.54;100.00
64352;BME280;50680;52.626;-8.668;2022-07-18T00:22:54;101764.59;;;15.51;100.00
64352;BME280;50680;52.626;-8.668;2022-07-18T00:25:22;101754.13;;;15.50;100.00
64352;BME280;50680;52.626;-8.668;2022-07-18T00:27:49;101756.03;;;15.48;100.00
64352;BME280;50680;52.626;-8.668;2022-07-18T00:30:16;101755.47;;;15.42;100.00
64352;BME280;50680;52.626;-8.668;2022-07-18T00:32:43;101752.44;;;15.34;100.00
64352;BME280;50680;52.626;-8.668;2022-07-18T00:35:10;101742.47;;;15.25;100.00
64352;BME280;50680;52.626;-8.668;2022-07-18T00:37:37;101740.19;;;15.19;100.00
64352;BME280;50680;52.626;-8.668;2022-07-18T00:40:04;101746.63;;;15.15;100.00
64352;BME280;50680;52.626;-8.668;2022-07-18T00:42:32;101738.41;;;15.05;100.00
64352;BME280;50680;52.626;-8.668;2022-07-18T00:44:59;101746.56;;;15.02;100.00
64352;BME280;50680;52.626;-8.668;2022-07-18T00:47:26;101741.53;;;14.97;100.00
64352;BME280;50680;52.626;-8.668;2022-07-18T00:49:53;101744.00;;;15.00;100.00
64352;BME280;50680;52.626;-8.668;2022-07-18T00:52:20;101744.19;;;14.97;100.00
64352;BME280;50680;52.626;-8.668;2022-07-18T00:54:47;101742.88;;;14.90;100.00
64352;BME280;50680;52.626;-8.668;2022-07-18T00:57:14;101737.84;;;14.85;100.00
64352;BME280;50680;52.626;-8.668;2022-07-18T00:59:41;101737.19;;;14.82;100.00
64352;BME280;50680;52.626;-8.668;2022-07-18T01:02:26;101742.94;;;14.74;100.00
64352;BME280;50680;52.626;-8.668;2022-07-18T01:04:53;101738.88;;;14.69;100.00
64352;BME280;50680;52.626;-8.668;2022-07-18T01:07:21;101728.69;;;14.62;100.00
64352;BME280;50680;52.626;-8.668;2022-07-18T01:09:48;101734.91;;;14.76;100.00
64352;BME280;50680;52.626;-8.668;2022-07-18T01:12:15;101728.69;;;14.77;100.00
64352;BME280;50680;52.626;-8.668;2022-07-18T01:14:42;101728.69;;;14.77;100.00
64352;BME280;50680;52.626;-8.668;2022-07-18T01:17:18;101713.03;;;14.74;100.00
64352;BME280;50680;52.626;-8.668;2022-07-18T01:19:46;101724.75;;;14.84;100.00
64352;BME280;50680;52.626;-8.668;2022-07-18T01:22:15;101717.78;;;14.83;100.00
64352;BME280;50680;52.626;-8.668;2022-07-18T01:24:43;101718.53;;;14.85;100.00
64352;BME280;50680;52.626;-8.668;2022-07-18T01:27:15;101714.56;;;14.92;100.00
64352;BME280;50680;52.626;-8.668;2022-07-18T01:29:44;101716.72;;;15.00;100.00
64352;BME280;50680;52.626;-8.668;2022-07-18T01:32:12;101711.00;;;14.93;100.00
64352;BME280;50680;52.626;-8.668;2022-07-18T01:34:39;101710.78;;;14.82;100.00
64352;BME280;50680;52.626;-8.668;2022-07-18T01:37:07;101720.13;;;14.73;100.00
64352;BME280;50680;52.626;-8.668;2022-07-18T01:39:35;101710.13;;;14.64;100.00
64352;BME280;50680;52.626;-8.668;2022-07-18T01:42:04;101713.19;;;14.56;100.00
64352;BME280;50680;52.626;-8.668;2022-07-18T01:44:33;101712.63;;;14.51;100.00
64352;BME280;50680;52.626;-8.668;2022-07-18T01:47:01;101711.28;;;14.44;100.00
64352;BME280;50680;52.626;-8.668;2022-07-18T01:49:28;101713.25;;;14.40;100.00
64352;BME280;50680;52.626;-8.668;2022-07-18T01:51:59;101717.03;;;14.36;100.00
64352;BME280;50680;52.626;-8.668;2022-07-18T01:54:28;101716.34;;;14.33;100.00
64352;BME280;50680;52.626;-8.668;2022-07-18T01:56:56;101712.94;;;14.30;100.00
64352;BME280;50680;52.626;-8.668;2022-07-18T01:59:26;101715.00;;;14.25;100.00
64352;BME280;50680;52.626;-8.668;2022-07-18T02:01:53;101721.50;;;14.20;100.00
64352;BME280;50680;52.626;-8.668;2022-07-18T02:04:20;101709.53;;;14.14;100.00
64352;BME280;50680;52.626;-8.668;2022-07-18T02:07:07;101708.84;;;14.10;100.00
64352;BME280;50680;52.626;-8.668;2022-07-18T02:09:34;101712.25;;;14.13;100.00
64352;BME280;50680;52.626;-8.668;2022-07-18T02:12:01;101707.56;;;14.18;100.00
64352;BME280;50680;52.626;-8.668;2022-07-18T02:14:28;101695.22;;;14.18;100.00
64352;BME280;50680;52.626;-8.668;2022-07-18T02:16:55;101701.44;;;14.17;100.00
64352;BME280;50680;52.626;-8.668;2022-07-18T02:19:22;101698.97;;;14.14;100.00
64352;BME280;50680;52.626;-8.668;2022-07-18T02:21:49;101700.94;;;14.10;100.00
64352;BME280;50680;52.626;-8.668;2022-07-18T02:24:16;101690.75;;;14.04;100.00
64352;BME280;50680;52.626;-8.668;2022-07-18T02:26:43;101688.03;;;14.06;100.00
64352;BME280;50680;52.626;-8.668;2022-07-18T02:29:10;101688.78;;;14.08;100.00
64352;BME280;50680;52.626;-8.668;2022-07-18T02:31:37;101690.31;;;14.12;100.00
64352;BME280;50680;52.626;-8.668;2022-07-18T02:34:04;101678.13;;;14.09;100.00
64352;BME280;50680;52.626;-8.668;2022-07-18T02:36:41;101681.91;;;14.05;100.00
64352;BME280;50680;52.626;-8.668;2022-07-18T02:39:09;101678.59;;;14.02;100.00
64352;BME280;50680;52.626;-8.668;2022-07-18T02:41:36;101672.19;;;14.06;100.00
64352;BME280;50680;52.626;-8.668;2022-07-18T02:44:03;101676.16;;;14.13;100.00
64352;BME280;50680;52.626;-8.668;2022-07-18T02:46:31;101682.41;;;14.12;100.00
64352;BME280;50680;52.626;-8.668;2022-07-18T02:48:58;101673.03;;;14.06;100.00
64352;BME280;50680;52.626;-8.668;2022-07-18T02:51:25;101670.50;;;14.05;100.00
64352;BME280;50680;52.626;-8.668;2022-07-18T02:53:54;101669.66;;;14.04;100.00
64352;BME280;50680;52.626;-8.668;2022-07-18T02:56:21;101663.38;;;14.07;100.00
64352;BME280;50680;52.626;-8.668;2022-07-18T02:58:48;101665.94;;;14.23;100.00
64352;BME280;50680;52.626;-8.668;2022-07-18T03:01:15;101666.03;;;14.36;100.00
64352;BME280;50680;52.626;-8.668;2022-07-18T03:03:42;101663.53;;;14.48;100.00
64352;BME280;50680;52.626;-8.668;2022-07-18T03:06:09;101662.13;;;14.57;100.00
64352;BME280;50680;52.626;-8.668;2022-07-18T03:08:36;101657.22;;;14.65;100.00
64352;BME280;50680;52.626;-8.668;2022-07-18T03:11:03;101660.06;;;14.62;100.00
64352;BME280;50680;52.626;-8.668;2022-07-18T03:13:30;101664.94;;;14.54;100.00
64352;BME280;50680;52.626;-8.668;2022-07-18T03:15:56;101662.19;;;14.41;100.00
64352;BME280;50680;52.626;-8.668;2022-07-18T03:18:23;101655.66;;;14.33;100.00
64352;BME280;50680;52.626;-8.668;2022-07-18T03:20:52;101653.31;;;14.28;100.00
64352;BME280;50680;52.626;-8.668;2022-07-18T03:23:19;101645.31;;;14.29;100.00
64352;BME280;50680;52.626;-8.668;2022-07-18T03:25:46;101646.63;;;14.37;100.00
64352;BME280;50680;52.626;-8.668;2022-07-18T03:28:13;101635.25;;;14.51;100.00
64352;BME280;50680;52.626;-8.668;2022-07-18T03:30:40;101644.25;;;14.62;100.00
64352;BME280;50680;52.626;-8.668;2022-07-18T03:33:07;101632.25;;;14.71;100.00
64352;BME280;50680;52.626;-8.668;2022-07-18T03:35:34;101630.09;;;14.78;100.00
64352;BME280;50680;52.626;-8.668;2022-07-18T03:38:01;101638.56;;;14.83;100.00
64352;BME280;50680;52.626;-8.668;2022-07-18T03:40:29;101628.56;;;14.88;100.00
64352;BME280;50680;52.626;-8.668;2022-07-18T03:42:56;101628.25;;;14.93;100.00
64352;BME280;50680;52.626;-8.668;2022-07-18T03:45:25;101628.16;;;14.94;100.00
64352;BME280;50680;52.626;-8.668;2022-07-18T03:47:53;101621.00;;;14.96;100.00
64352;BME280;50680;52.626;-8.668;2022-07-18T03:50:20;101617.59;;;14.94;100.00
64352;BME280;50680;52.626;-8.668;2022-07-18T03:52:47;101616.13;;;14.90;100.00
64352;BME280;50680;52.626;-8.668;2022-07-18T03:55:15;101616.50;;;14.84;100.00
64352;BME280;50680;52.626;-8.668;2022-07-18T03:57:42;101616.81;;;14.79;100.00
64352;BME280;50680;52.626;-8.668;2022-07-18T04:00:10;101621.28;;;14.77;100.00
64352;BME280;50680;52.626;-8.668;2022-07-18T04:02:41;101613.75;;;14.85;100.00
64352;BME280;50680;52.626;-8.668;2022-07-18T04:05:08;101611.66;;;14.91;100.00
64352;BME280;50680;52.626;-8.668;2022-07-18T04:07:36;101612.59;;;14.90;100.00
64352;BME280;50680;52.626;-8.668;2022-07-18T04:10:06;101618.38;;;14.82;100.00
64352;BME280;50680;52.626;-8.668;2022-07-18T04:12:34;101607.34;;;14.75;100.00
64352;BME280;50680;52.626;-8.668;2022-07-18T04:15:01;101615.00;;;14.80;100.00
64352;BME280;50680;52.626;-8.668;2022-07-18T04:17:30;101601.06;;;14.78;100.00
64352;BME280;50680;52.626;-8.668;2022-07-18T04:19:57;101604.06;;;14.72;100.00
64352;BME280;50680;52.626;-8.668;2022-07-18T04:22:23;101614.06;;;14.66;100.00
64352;BME280;50680;52.626;-8.668;2022-07-18T04:24:50;101605.75;;;14.58;100.00
64352;BME280;50680;52.626;-8.668;2022-07-18T04:27:19;101607.06;;;14.65;100.00
64352;BME280;50680;52.626;-8.668;2022-07-18T04:29:46;101603.97;;;14.73;100.00
64352;BME280;50680;52.626;-8.668;2022-07-18T04:32:13;101600.50;;;14.73;100.00
64352;BME280;50680;52.626;-8.668;2022-07-18T04:34:40;101601.41;;;14.72;100.00
64352;BME280;50680;52.626;-8.668;2022-07-18T04:37:07;101605.22;;;14.68;100.00
64352;BME280;50680;52.626;-8.668;2022-07-18T04:39:34;101600.75;;;14.68;100.00
64352;BME280;50680;52.626;-8.668;2022-07-18T04:42:01;101597.63;;;14.76;100.00
64352;BME280;50680;52.626;-8.668;2022-07-18T04:44:28;101595.19;;;14.87;100.00
64352;BME280;50680;52.626;-8.668;2022-07-18T04:46:55;101600.81;;;14.95;100.00
64352;BME280;50680;52.626;-8.668;2022-07-18T04:49:22;101601.16;;;15.03;100.00
64352;BME280;50680;52.626;-8.668;2022-07-18T04:51:51;101599.63;;;15.14;100.00
64352;BME280;50680;52.626;-8.668;2022-07-18T04:54:18;101590.47;;;15.19;100.00
64352;BME280;50680;52.626;-8.668;2022-07-18T04:56:45;101592.59;;;15.27;100.00
64352;BME280;50680;52.626;-8.668;2022-07-18T04:59:12;101586.59;;;15.25;100.00
64352;BME280;50680;52.626;-8.668;2022-07-18T05:01:39;101587.94;;;15.18;100.00
64352;BME280;50680;52.626;-8.668;2022-07-18T05:04:06;101587.94;;;15.18;100.00
64352;BME280;50680;52.626;-8.668;2022-07-18T05:06:33;101580.94;;;15.17;100.00
64352;BME280;50680;52.626;-8.668;2022-07-18T05:09:00;101579.81;;;15.21;100.00
64352;BME280;50680;52.626;-8.668;2022-07-18T05:11:27;101586.38;;;15.28;100.00
64352;BME280;50680;52.626;-8.668;2022-07-18T05:13:54;101590.13;;;15.38;100.00
64352;BME280;50680;52.626;-8.668;2022-07-18T05:16:21;101589.69;;;15.45;100.00
64352;BME280;50680;52.626;-8.668;2022-07-18T05:18:48;101581.38;;;15.51;100.00
64352;BME280;50680;52.626;-8.668;2022-07-18T05:21:15;101587.13;;;15.57;100.00
64352;BME280;50680;52.626;-8.668;2022-07-18T05:23:42;101579.59;;;15.64;100.00
64352;BME280;50680;52.626;-8.668;2022-07-18T05:26:09;101577.38;;;15.71;100.00
64352;BME280;50680;52.626;-8.668;2022-07-18T05:28:36;101573.44;;;15.78;100.00
64352;BME280;50680;52.626;-8.668;2022-07-18T05:31:03;101579.03;;;15.86;100.00
64352;BME280;50680;52.626;-8.668;2022-07-18T05:33:30;101578.28;;;15.97;100.00
64352;BME280;50680;52.626;-8.668;2022-07-18T05:36:03;101585.19;;;16.12;100.00
64352;BME280;50680;52.626;-8.668;2022-07-18T05:38:30;101583.50;;;16.37;100.00
64352;BME280;50680;52.626;-8.668;2022-07-18T05:40:57;101575.16;;;16.67;100.00
64352;BME280;50680;52.626;-8.668;2022-07-18T05:43:24;101574.06;;;16.96;100.00
64352;BME280;50680;52.626;-8.668;2022-07-18T05:45:51;101573.13;;;17.21;100.00
64352;BME280;50680;52.626;-8.668;2022-07-18T05:48:18;101572.75;;;17.50;100.00
64352;BME280;50680;52.626;-8.668;2022-07-18T05:50:45;101571.06;;;17.84;100.00
64352;BME280;50680;52.626;-8.668;2022-07-18T05:53:12;101575.09;;;18.23;100.00
64352;BME280;50680;52.626;-8.668;2022-07-18T05:55:39;101576.88;;;18.68;100.00
64352;BME280;50680;52.626;-8.668;2022-07-18T05:58:06;101577.81;;;19.12;100.00
64352;BME280;50680;52.626;-8.668;2022-07-18T06:00:33;101567.59;;;19.50;100.00
64352;BME280;50680;52.626;-8.668;2022-07-18T06:03:01;101565.75;;;19.83;100.00
64352;BME280;50680;52.626;-8.668;2022-07-18T06:05:28;101565.78;;;20.14;100.00
64352;BME280;50680;52.626;-8.668;2022-07-18T06:07:56;101571.25;;;20.43;100.00
64352;BME280;50680;52.626;-8.668;2022-07-18T06:10:25;101562.94;;;20.67;100.00
64352;BME280;50680;52.626;-8.668;2022-07-18T06:12:54;101563.13;;;20.95;100.00
64352;BME280;50680;52.626;-8.668;2022-07-18T06:15:21;101558.78;;;21.23;100.00
64352;BME280;50680;52.626;-8.668;2022-07-18T06:17:51;101554.34;;;21.53;100.00
64352;BME280;50680;52.626;-8.668;2022-07-18T06:20:18;101555.38;;;21.89;100.00
64352;BME280;50680;52.626;-8.668;2022-07-18T06:22:45;101552.66;;;22.09;100.00
64352;BME280;50680;52.626;-8.668;2022-07-18T06:25:12;101551.25;;;22.42;100.00
64352;BME280;50680;52.626;-8.668;2022-07-18T06:27:39;101543.69;;;22.65;100.00
64352;BME280;50680;52.626;-8.668;2022-07-18T06:30:07;101550.50;;;22.96;100.00
64352;BME280;50680;52.626;-8.668;2022-07-18T06:32:37;101545.75;;;23.17;100.00
64352;BME280;50680;52.626;-8.668;2022-07-18T06:35:04;101540.44;;;23.25;100.00
64352;BME280;50680;52.626;-8.668;2022-07-18T06:37:31;101552.28;;;23.41;100.00
64352;BME280;50680;52.626;-8.668;2022-07-18T06:39:58;101551.69;;;23.73;100.00
64352;BME280;50680;52.626;-8.668;2022-07-18T06:42:29;101554.34;;;23.91;96.15
64352;BME280;50680;52.626;-8.668;2022-07-18T06:44:56;101550.88;;;23.99;95.88
64352;BME280;50680;52.626;-8.668;2022-07-18T06:47:23;101543.44;;;23.84;93.82
64352;BME280;50680;52.626;-8.668;2022-07-18T06:49:50;101545.38;;;24.00;92.31
64352;BME280;50680;52.626;-8.668;2022-07-18T06:52:17;101540.88;;;24.09;89.99
64352;BME280;50680;52.626;-8.668;2022-07-18T06:54:44;101538.41;;;24.16;87.02
64352;BME280;50680;52.626;-8.668;2022-07-18T06:57:10;101539.19;;;24.08;86.32
64352;BME280;50680;52.626;-8.668;2022-07-18T06:59:37;101549.59;;;24.46;86.34
64352;BME280;50680;52.626;-8.668;2022-07-18T07:02:11;101518.03;;;24.82;82.91
64352;BME280;50680;52.626;-8.668;2022-07-18T07:04:38;101522.88;;;24.70;84.75
64352;BME280;50680;52.626;-8.668;2022-07-18T07:07:05;101528.13;;;24.46;85.80
64352;BME280;50680;52.626;-8.668;2022-07-18T07:09:32;101541.94;;;23.64;88.42
64352;BME280;50680;52.626;-8.668;2022-07-18T07:11:59;101536.69;;;23.00;91.83
64352;BME280;50680;52.626;-8.668;2022-07-18T07:14:26;101529.84;;;22.52;95.61
64352;BME280;50680;52.626;-8.668;2022-07-18T07:16:53;101518.91;;;22.45;98.88
64352;BME280;50680;52.626;-8.668;2022-07-18T07:19:20;101505.28;;;22.84;95.94
64352;BME280;50680;52.626;-8.668;2022-07-18T07:21:47;101498.88;;;23.31;91.70
64352;BME280;50680;52.626;-8.668;2022-07-18T07:24:14;101494.13;;;23.77;88.74
64352;BME280;50680;52.626;-8.668;2022-07-18T07:26:41;101501.25;;;24.21;85.96
64352;BME280;50680;52.626;-8.668;2022-07-18T07:29:07;101493.03;;;24.65;83.14
64352;BME280;50680;52.626;-8.668;2022-07-18T07:31:34;101490.88;;;24.77;82.12
64352;BME280;50680;52.626;-8.668;2022-07-18T07:34:02;101480.16;;;24.93;81.97
64352;BME280;50680;52.626;-8.668;2022-07-18T07:36:32;101477.97;;;25.38;82.02
64352;BME280;50680;52.626;-8.668;2022-07-18T07:38:59;101472.66;;;25.94;80.25
64352;BME280;50680;52.626;-8.668;2022-07-18T07:41:26;101477.78;;;26.43;73.56
64352;BME280;50680;52.626;-8.668;2022-07-18T07:43:53;101475.81;;;26.69;71.25
64352;BME280;50680;52.626;-8.668;2022-07-18T07:46:20;101483.75;;;26.85;67.65
64352;BME280;50680;52.626;-8.668;2022-07-18T07:48:48;101474.72;;;27.01;67.33
64352;BME280;50680;52.626;-8.668;2022-07-18T07:51:15;101484.69;;;27.38;67.67
64352;BME280;50680;52.626;-8.668;2022-07-18T07:53:48;101480.34;;;27.97;65.28
64352;BME280;50680;52.626;-8.668;2022-07-18T07:56:15;101486.50;;;28.57;63.24
64352;BME280;50680;52.626;-8.668;2022-07-18T07:58:45;101479.47;;;29.06;61.91
64352;BME280;50680;52.626;-8.668;2022-07-18T08:01:12;101483.75;;;29.50;60.20
64352;BME280;50680;52.626;-8.668;2022-07-18T08:03:41;101472.03;;;30.06;58.47
64352;BME280;50680;52.626;-8.668;2022-07-18T08:06:08;101470.72;;;30.50;56.34
64352;BME280;50680;52.626;-8.668;2022-07-18T08:08:35;101476.38;;;30.75;54.71
64352;BME280;50680;52.626;-8.668;2022-07-18T08:11:02;101468.09;;;31.24;53.90
64352;BME280;50680;52.626;-8.668;2022-07-18T08:13:29;101474.53;;;31.56;52.95
64352;BME280;50680;52.626;-8.668;2022-07-18T08:15:56;101481.56;;;31.77;51.51
64352;BME280;50680;52.626;-8.668;2022-07-18T08:18:23;101483.78;;;31.94;50.96
64352;BME280;50680;52.626;-8.668;2022-07-18T08:20:50;101485.66;;;32.07;48.06
64352;BME280;50680;52.626;-8.668;2022-07-18T08:23:17;101481.41;;;32.17;47.99
64352;BME280;50680;52.626;-8.668;2022-07-18T08:25:45;101473.03;;;32.26;47.10
64352;BME280;50680;52.626;-8.668;2022-07-18T08:28:13;101465.88;;;32.38;46.75
64352;BME280;50680;52.626;-8.668;2022-07-18T08:30:40;101460.31;;;32.51;45.81
64352;BME280;50680;52.626;-8.668;2022-07-18T08:33:08;101453.19;;;32.64;45.90
64352;BME280;50680;52.626;-8.668;2022-07-18T08:35:35;101445.97;;;33.01;45.02
64352;BME280;50680;52.626;-8.668;2022-07-18T08:38:03;101453.75;;;33.23;43.90
64352;BME280;50680;52.626;-8.668;2022-07-18T08:40:31;101450.00;;;33.42;42.96
64352;BME280;50680;52.626;-8.668;2022-07-18T08:42:58;101452.34;;;33.57;42.46
64352;BME280;50680;52.626;-8.668;2022-07-18T08:45:46;101449.47;;;33.70;41.69
64352;BME280;50680;52.626;-8.668;2022-07-18T08:48:17;101448.59;;;33.77;42.19
64352;BME280;50680;52.626;-8.668;2022-07-18T08:50:45;101441.41;;;33.82;41.96
64352;BME280;50680;52.626;-8.668;2022-07-18T08:53:13;101441.03;;;33.79;40.99
64352;BME280;50680;52.626;-8.668;2022-07-18T08:55:41;101442.34;;;33.88;41.37
64352;BME280;50680;52.626;-8.668;2022-07-18T08:58:08;101443.59;;;33.92;41.26
64352;BME280;50680;52.626;-8.668;2022-07-18T09:00:56;101439.41;;;33.89;40.45
64352;BME280;50680;52.626;-8.668;2022-07-18T09:03:25;101444.91;;;34.01;40.07
64352;BME280;50680;52.626;-8.668;2022-07-18T09:06:13;101444.19;;;33.76;36.78
64352;BME280;50680;52.626;-8.668;2022-07-18T09:09:00;101440.84;;;33.55;37.68
64352;BME280;50680;52.626;-8.668;2022-07-18T09:11:28;101435.28;;;33.87;39.41
64352;BME280;50680;52.626;-8.668;2022-07-18T09:14:42;101430.59;;;33.76;37.48
64352;BME280;50680;52.626;-8.668;2022-07-18T09:17:14;101435.72;;;33.84;39.76
64352;BME280;50680;52.626;-8.668;2022-07-18T09:19:57;101426.53;;;33.85;38.64
64352;BME280;50680;52.626;-8.668;2022-07-18T09:22:27;101424.53;;;34.22;39.66
64352;BME280;50680;52.626;-8.668;2022-07-18T09:24:57;101416.91;;;34.43;38.73
64352;BME280;50680;52.626;-8.668;2022-07-18T09:27:30;101422.16;;;34.56;37.15
64352;BME280;50680;52.626;-8.668;2022-07-18T09:30:08;101416.47;;;34.58;37.83
64352;BME280;50680;52.626;-8.668;2022-07-18T09:32:39;101408.09;;;34.71;38.39
64352;BME280;50680;52.626;-8.668;2022-07-18T09:35:09;101401.59;;;34.84;38.08
64352;BME280;50680;52.626;-8.668;2022-07-18T09:37:37;101396.84;;;34.91;37.99
64352;BME280;50680;52.626;-8.668;2022-07-18T09:40:20;101390.69;;;34.96;36.21
64352;BME280;50680;52.626;-8.668;2022-07-18T09:42:52;101387.81;;;35.14;36.65
64352;BME280;50680;52.626;-8.668;2022-07-18T09:45:27;101395.53;;;35.41;36.72
64352;BME280;50680;52.626;-8.668;2022-07-18T09:48:06;101383.63;;;35.47;36.79
64352;BME280;50680;52.626;-8.668;2022-07-18T09:50:42;101385.31;;;35.48;36.15
64352;BME280;50680;52.626;-8.668;2022-07-18T09:56:00;101379.34;;;35.63;36.50
64352;BME280;50680;52.626;-8.668;2022-07-18T09:58:31;101364.47;;;35.71;36.36
64352;BME280;50680;52.626;-8.668;2022-07-18T10:01:00;101361.81;;;35.47;34.93
64352;BME280;50680;52.626;-8.668;2022-07-18T10:03:28;101367.38;;;35.52;36.25
64352;BME280;50680;52.626;-8.668;2022-07-18T10:05:56;101370.44;;;35.56;35.81
64352;BME280;50680;52.626;-8.668;2022-07-18T10:08:26;101372.50;;;35.37;34.76
64352;BME280;50680;52.626;-8.668;2022-07-18T10:10:56;101378.69;;;35.20;34.21
64352;BME280;50680;52.626;-8.668;2022-07-18T10:13:27;101376.47;;;35.06;34.59
64352;BME280;50680;52.626;-8.668;2022-07-18T10:15:55;101378.47;;;34.87;35.08
64352;BME280;50680;52.626;-8.668;2022-07-18T10:18:24;101380.03;;;34.94;34.84
64352;BME280;50680;52.626;-8.668;2022-07-18T10:23:39;101377.97;;;34.42;33.46
64352;BME280;50680;52.626;-8.668;2022-07-18T10:26:24;101377.97;;;34.12;34.04
64352;BME280;50680;52.626;-8.668;2022-07-18T10:31:33;101374.69;;;33.80;34.88
64352;BME280;50680;52.626;-8.668;2022-07-18T10:36:39;101374.47;;;33.93;35.77
64352;BME280;50680;52.626;-8.668;2022-07-18T10:47:08;101357.81;;;34.43;36.55
64352;BME280;50680;52.626;-8.668;2022-07-18T10:57:40;101338.06;;;33.94;36.07
64352;BME280;50680;52.626;-8.668;2022-07-18T11:00:08;101343.09;;;33.79;36.08
64352;BME280;50680;52.626;-8.668;2022-07-18T11:02:44;101348.31;;;33.80;37.98
64352;BME280;50680;52.626;-8.668;2022-07-18T11:16:16;101357.00;;;34.19;40.39
64352;BME280;50680;52.626;-8.668;2022-07-18T11:24:04;101338.91;;;34.60;38.48
64352;BME280;50680;52.626;-8.668;2022-07-18T11:26:37;101330.59;;;34.43;38.89
64352;BME280;50680;52.626;-8.668;2022-07-18T11:29:09;101345.53;;;34.53;38.68
64352;BME280;50680;52.626;-8.668;2022-07-18T11:31:51;101341.38;;;34.50;38.02
64352;BME280;50680;52.626;-8.668;2022-07-18T11:34:21;101333.22;;;34.50;37.00
64352;BME280;50680;52.626;-8.668;2022-07-18T11:37:06;101335.00;;;34.56;37.68
64352;BME280;50680;52.626;-8.668;2022-07-18T11:39:33;101331.94;;;34.53;37.91
64352;BME280;50680;52.626;-8.668;2022-07-18T11:42:02;101332.88;;;34.70;37.50
64352;BME280;50680;52.626;-8.668;2022-07-18T11:44:30;101315.13;;;34.79;38.97
64352;BME280;50680;52.626;-8.668;2022-07-18T11:47:07;101316.66;;;34.99;39.50
64352;BME280;50680;52.626;-8.668;2022-07-18T11:49:35;101322.28;;;35.33;38.52
64352;BME280;50680;52.626;-8.668;2022-07-18T11:52:04;101320.03;;;35.58;38.58
64352;BME280;50680;52.626;-8.668;2022-07-18T11:54:31;101316.16;;;35.83;37.87
64352;BME280;50680;52.626;-8.668;2022-07-18T11:56:59;101307.88;;;35.78;37.58
64352;BME280;50680;52.626;-8.668;2022-07-18T11:59:41;101322.00;;;35.75;38.04
64352;BME280;50680;52.626;-8.668;2022-07-18T12:02:08;101319.03;;;35.76;37.41
64352;BME280;50680;52.626;-8.668;2022-07-18T12:04:36;101306.50;;;35.64;35.97
64352;BME280;50680;52.626;-8.668;2022-07-18T12:07:18;101328.59;;;35.50;35.63
64352;BME280;50680;52.626;-8.668;2022-07-18T12:09:47;101330.28;;;35.51;35.30
64352;BME280;50680;52.626;-8.668;2022-07-18T12:12:16;101339.38;;;35.57;36.10
64352;BME280;50680;52.626;-8.668;2022-07-18T12:14:58;101329.50;;;35.39;34.47
64352;BME280;50680;52.626;-8.668;2022-07-18T12:17:27;101320.38;;;35.62;36.01
64352;BME280;50680;52.626;-8.668;2022-07-18T12:20:16;101321.44;;;35.32;34.01
64352;BME280;50680;52.626;-8.668;2022-07-18T12:23:07;101319.19;;;35.29;36.41
64352;BME280;50680;52.626;-8.668;2022-07-18T12:25:38;101328.19;;;35.30;35.87
64352;BME280;50680;52.626;-8.668;2022-07-18T12:28:18;101333.72;;;35.47;36.34
64352;BME280;50680;52.626;-8.668;2022-07-18T12:30:47;101319.38;;;35.51;36.15
64352;BME280;50680;52.626;-8.668;2022-07-18T12:33:14;101321.00;;;35.52;36.44
64352;BME280;50680;52.626;-8.668;2022-07-18T12:35:41;101325.09;;;35.38;36.56
64352;BME280;50680;52.626;-8.668;2022-07-18T12:38:11;101330.66;;;35.43;36.78
64352;BME280;50680;52.626;-8.668;2022-07-18T12:43:21;101326.06;;;35.61;37.50
64352;BME280;50680;52.626;-8.668;2022-07-18T12:45:49;101323.34;;;35.61;36.17
64352;BME280;50680;52.626;-8.668;2022-07-18T12:48:18;101323.44;;;35.66;36.33
64352;BME280;50680;52.626;-8.668;2022-07-18T12:50:45;101320.31;;;35.45;35.32
64352;BME280;50680;52.626;-8.668;2022-07-18T12:53:12;101313.19;;;35.03;34.12
64352;BME280;50680;52.626;-8.668;2022-07-18T12:55:40;101313.19;;;35.03;33.39
64352;BME280;50680;52.626;-8.668;2022-07-18T12:58:07;101306.94;;;34.79;32.83
64352;BME280;50680;52.626;-8.668;2022-07-18T13:00:35;101304.69;;;34.41;33.22
64352;BME280;50680;52.626;-8.668;2022-07-18T13:03:02;101301.81;;;34.24;33.47
64352;BME280;50680;52.626;-8.668;2022-07-18T13:05:30;101302.31;;;34.33;33.90
64352;BME280;50680;52.626;-8.668;2022-07-18T13:07:58;101289.88;;;34.25;34.45
64352;BME280;50680;52.626;-8.668;2022-07-18T13:10:25;101300.03;;;34.29;34.58
64352;BME280;50680;52.626;-8.668;2022-07-18T13:12:52;101302.41;;;34.26;35.24
64352;BME280;50680;52.626;-8.668;2022-07-18T13:15:19;101292.16;;;34.28;35.73
64352;BME280;50680;52.626;-8.668;2022-07-18T13:17:49;101288.06;;;34.19;35.48
64352;BME280;50680;52.626;-8.668;2022-07-18T13:20:17;101280.41;;;34.39;35.14
64352;BME280;50680;52.626;-8.668;2022-07-18T13:22:45;101278.41;;;34.46;35.12
64352;BME280;50680;52.626;-8.668;2022-07-18T13:25:19;101268.31;;;34.59;35.35
64352;BME280;50680;52.626;-8.668;2022-07-18T13:27:47;101272.97;;;34.82;35.87
64352;BME280;50680;52.626;-8.668;2022-07-18T13:30:14;101267.84;;;34.62;35.44